sensor_id;sensor_type;location;lat;lon;timestamp;temperature;humidity
21861;DHT22;11095;48.066;8.540;2023-09-19T00:01:33;13.60;99.90
21861;DHT22;11095;48.066;8.540;2023-09-19T00:03:59;13.60;99.90
21861;DHT22;11095;48.066;8.540;2023-09-19T00:06:27;13.60;99.90
21861;DHT22;11095;48.066;8.540;2023-09-19T00:08:53;13.60;99.90
21861;DHT22;11095;48.066;8.540;2023-09-19T00:11:20;13.60;99.90
21861;DHT22;11095;48.066;8.540;2023-09-19T00:13:47;13.60;99.90
21861;DHT22;11095;48.066;8.540;2023-09-19T00:16:15;13.60;99.90
21861;DHT22;11095;48.066;8.540;2023-09-19T00:18:41;13.60;99.90
21861;DHT22;11095;48.066;8.540;2023-09-19T00:21:06;13.60;99.90
21861;DHT22;11095;48.066;8.540;2023-09-19T00:23:33;13.60;99.90
21861;DHT22;11095;48.066;8.540;2023-09-19T00:25:59;13.60;99.90
21861;DHT22;11095;48.066;8.540;2023-09-19T00:28:25;13.60;99.90
21861;DHT22;11095;48.066;8.540;2023-09-19T00:30:51;13.60;99.90
21861;DHT22;11095;48.066;8.540;2023-09-19T00:33:17;13.60;99.90
21861;DHT22;11095;48.066;8.540;2023-09-19T00:35:51;13.60;99.90
21861;DHT22;11095;48.066;8.540;2023-09-19T00:38:18;13.60;99.90
21861;DHT22;11095;48.066;8.540;2023-09-19T00:40:50;13.70;99.90
21861;DHT22;11095;48.066;8.540;2023-09-19T00:43:19;13.70;99.90
21861;DHT22;11095;48.066;8.540;2023-09-19T00:45:47;13.70;99.90
21861;DHT22;11095;48.066;8.540;2023-09-19T00:48:14;13.70;99.90
21861;DHT22;11095;48.066;8.540;2023-09-19T00:50:42;13.70;99.90
21861;DHT22;11095;48.066;8.540;2023-09-19T00:53:09;13.70;99.90
21861;DHT22;11095;48.066;8.540;2023-09-19T00:55:39;13.70;99.90
21861;DHT22;11095;48.066;8.540;2023-09-19T00:58:08;13.70;99.90
21861;DHT22;11095;48.066;8.540;2023-09-19T01:00:34;13.70;99.90
21861;DHT22;11095;48.066;8.540;2023-09-19T01:03:00;13.70;99.90
21861;DHT22;11095;48.066;8.540;2023-09-19T01:05:29;13.80;99.90
21861;DHT22;11095;48.066;8.540;2023-09-19T01:07:57;13.80;99.90
21861;DHT22;11095;48.066;8.540;2023-09-19T01:10:24;13.80;99.90
21861;DHT22;11095;48.066;8.540;2023-09-19T01:28:53;13.60;99.90
21861;DHT22;11095;48.066;8.540;2023-09-19T01:31:21;13.50;99.90
21861;DHT22;11095;48.066;8.540;2023-09-19T01:34:15;13.50;99.90
21861;DHT22;11095;48.066;8.540;2023-09-19T01:36:40;13.40;99.90
21861;DHT22;11095;48.066;8.540;2023-09-19T01:39:08;13.40;99.90
21861;DHT22;11095;48.066;8.540;2023-09-19T01:44:26;13.30;99.90
21861;DHT22;11095;48.066;8.540;2023-09-19T01:46:58;13.30;99.90
21861;DHT22;11095;48.066;8.540;2023-09-19T01:49:42;13.30;99.90
21861;DHT22;11095;48.066;8.540;2023-09-19T01:52:12;13.20;99.90
21861;DHT22;11095;48.066;8.540;2023-09-19T01:54:56;13.20;99.90
21861;DHT22;11095;48.066;8.540;2023-09-19T01:57:29;13.30;99.90
21861;DHT22;11095;48.066;8.540;2023-09-19T02:00:07;13.30;99.90
21861;DHT22;11095;48.066;8.540;2023-09-19T02:02:36;13.30;99.90
21861;DHT22;11095;48.066;8.540;2023-09-19T02:05:03;13.30;99.90
21861;DHT22;11095;48.066;8.540;2023-09-19T02:07:29;13.40;99.90
21861;DHT22;11095;48.066;8.540;2023-09-19T02:09:59;13.40;99.90
21861;DHT22;11095;48.066;8.540;2023-09-19T02:12:32;13.40;99.90
21861;DHT22;11095;48.066;8.540;2023-09-19T02:14:58;13.40;99.90
21861;DHT22;11095;48.066;8.540;2023-09-19T02:17:25;13.50;99.90
21861;DHT22;11095;48.066;8.540;2023-09-19T02:19:54;13.40;99.90
21861;DHT22;11095;48.066;8.540;2023-09-19T02:22:21;13.50;99.90
21861;DHT22;11095;48.066;8.540;2023-09-19T02:24:46;13.50;99.90
21861;DHT22;11095;48.066;8.540;2023-09-19T02:27:13;13.50;99.90
21861;DHT22;11095;48.066;8.540;2023-09-19T02:29:41;13.50;99.90
21861;DHT22;11095;48.066;8.540;2023-09-19T02:32:07;13.50;99.90
21861;DHT22;11095;48.066;8.540;2023-09-19T02:34:35;13.50;99.90
21861;DHT22;11095;48.066;8.540;2023-09-19T02:37:04;13.50;99.90
21861;DHT22;11095;48.066;8.540;2023-09-19T02:39:31;13.50;99.90
21861;DHT22;11095;48.066;8.540;2023-09-19T02:41:57;13.50;99.90
21861;DHT22;11095;48.066;8.540;2023-09-19T02:44:23;13.50;99.90
21861;DHT22;11095;48.066;8.540;2023-09-19T02:46:49;13.60;99.90
21861;DHT22;11095;48.066;8.540;2023-09-19T02:49:15;13.60;99.90
21861;DHT22;11095;48.066;8.540;2023-09-19T02:51:40;13.60;99.90
21861;DHT22;11095;48.066;8.540;2023-09-19T02:54:07;13.60;99.90
21861;DHT22;11095;48.066;8.540;2023-09-19T02:56:33;13.60;99.90
21861;DHT22;11095;48.066;8.540;2023-09-19T02:58:59;13.60;99.90
21861;DHT22;11095;48.066;8.540;2023-09-19T03:01:26;13.50;99.90
21861;DHT22;11095;48.066;8.540;2023-09-19T03:03:53;13.50;99.90
21861;DHT22;11095;48.066;8.540;2023-09-19T03:06:19;13.50;99.90
21861;DHT22;11095;48.066;8.540;2023-09-19T03:08:46;13.50;99.90
21861;DHT22;11095;48.066;8.540;2023-09-19T03:11:12;13.50;99.90
21861;DHT22;11095;48.066;8.540;2023-09-19T03:13:40;13.40;99.90
21861;DHT22;11095;48.066;8.540;2023-09-19T03:16:07;13.40;99.90
21861;DHT22;11095;48.066;8.540;2023-09-19T03:18:36;13.50;99.90
21861;DHT22;11095;48.066;8.540;2023-09-19T03:21:02;13.40;99.90
21861;DHT22;11095;48.066;8.540;2023-09-19T03:23:28;13.40;99.90
21861;DHT22;11095;48.066;8.540;2023-09-19T03:25:54;13.40;99.90
21861;DHT22;11095;48.066;8.540;2023-09-19T03:28:21;13.30;99.90
21861;DHT22;11095;48.066;8.540;2023-09-19T03:31:04;13.40;99.90
21861;DHT22;11095;48.066;8.540;2023-09-19T03:33:29;13.40;99.90
21861;DHT22;11095;48.066;8.540;2023-09-19T03:35:59;13.40;99.90
21861;DHT22;11095;48.066;8.540;2023-09-19T03:38:27;13.40;99.90
21861;DHT22;11095;48.066;8.540;2023-09-19T03:40:54;13.40;99.90
21861;DHT22;11095;48.066;8.540;2023-09-19T03:43:19;13.40;99.90
21861;DHT22;11095;48.066;8.540;2023-09-19T03:45:45;13.40;99.90
21861;DHT22;11095;48.066;8.540;2023-09-19T03:48:12;13.40;99.90
21861;DHT22;11095;48.066;8.540;2023-09-19T03:50:38;13.40;99.90
21861;DHT22;11095;48.066;8.540;2023-09-19T03:53:04;13.40;99.90
21861;DHT22;11095;48.066;8.540;2023-09-19T03:55:32;13.40;99.90
21861;DHT22;11095;48.066;8.540;2023-09-19T03:58:01;13.40;99.90
21861;DHT22;11095;48.066;8.540;2023-09-19T04:00:26;13.30;99.90
21861;DHT22;11095;48.066;8.540;2023-09-19T04:02:53;13.30;99.90
21861;DHT22;11095;48.066;8.540;2023-09-19T04:05:19;13.40;99.90
21861;DHT22;11095;48.066;8.540;2023-09-19T04:07:44;13.30;99.90
21861;DHT22;11095;48.066;8.540;2023-09-19T04:10:10;13.30;99.90
21861;DHT22;11095;48.066;8.540;2023-09-19T04:12:40;13.40;99.90
21861;DHT22;11095;48.066;8.540;2023-09-19T04:15:06;13.30;99.90
21861;DHT22;11095;48.066;8.540;2023-09-19T04:17:32;13.30;99.90
21861;DHT22;11095;48.066;8.540;2023-09-19T04:20:01;13.30;99.90
21861;DHT22;11095;48.066;8.540;2023-09-19T04:22:26;13.30;99.90
21861;DHT22;11095;48.066;8.540;2023-09-19T04:24:52;13.30;99.90
21861;DHT22;11095;48.066;8.540;2023-09-19T04:27:17;13.30;99.90
21861;DHT22;11095;48.066;8.540;2023-09-19T04:29:44;13.40;99.90
21861;DHT22;11095;48.066;8.540;2023-09-19T04:32:10;13.40;99.90
21861;DHT22;11095;48.066;8.540;2023-09-19T04:34:37;13.40;99.90
21861;DHT22;11095;48.066;8.540;2023-09-19T04:37:03;13.40;99.90
21861;DHT22;11095;48.066;8.540;2023-09-19T04:39:29;13.40;99.90
21861;DHT22;11095;48.066;8.540;2023-09-19T04:41:55;13.40;99.90
21861;DHT22;11095;48.066;8.540;2023-09-19T04:44:21;13.40;99.90
21861;DHT22;11095;48.066;8.540;2023-09-19T04:46:47;13.40;99.90
21861;DHT22;11095;48.066;8.540;2023-09-19T04:49:13;13.30;99.90
21861;DHT22;11095;48.066;8.540;2023-09-19T04:51:39;13.30;99.90
21861;DHT22;11095;48.066;8.540;2023-09-19T04:54:05;13.30;99.90
21861;DHT22;11095;48.066;8.540;2023-09-19T04:56:31;13.30;99.90
21861;DHT22;11095;48.066;8.540;2023-09-19T04:58:58;13.20;99.90
21861;DHT22;11095;48.066;8.540;2023-09-19T05:01:24;13.20;99.90
21861;DHT22;11095;48.066;8.540;2023-09-19T05:03:50;13.20;99.90
21861;DHT22;11095;48.066;8.540;2023-09-19T05:06:19;13.10;99.90
21861;DHT22;11095;48.066;8.540;2023-09-19T05:08:48;13.10;99.90
21861;DHT22;11095;48.066;8.540;2023-09-19T05:11:19;13.10;99.90
21861;DHT22;11095;48.066;8.540;2023-09-19T05:13:47;13.10;99.90
21861;DHT22;11095;48.066;8.540;2023-09-19T05:16:13;13.00;99.90
21861;DHT22;11095;48.066;8.540;2023-09-19T05:18:39;13.10;99.90
21861;DHT22;11095;48.066;8.540;2023-09-19T05:21:05;13.10;99.90
21861;DHT22;11095;48.066;8.540;2023-09-19T05:23:30;13.10;99.90
21861;DHT22;11095;48.066;8.540;2023-09-19T05:25:57;13.10;99.90
21861;DHT22;11095;48.066;8.540;2023-09-19T05:28:25;13.30;99.90
21861;DHT22;11095;48.066;8.540;2023-09-19T05:30:52;13.70;99.90
21861;DHT22;11095;48.066;8.540;2023-09-19T05:33:19;14.40;99.90
21861;DHT22;11095;48.066;8.540;2023-09-19T05:35:45;15.00;99.90
21861;DHT22;11095;48.066;8.540;2023-09-19T05:38:12;15.90;99.90
21861;DHT22;11095;48.066;8.540;2023-09-19T05:40:39;17.00;99.90
21861;DHT22;11095;48.066;8.540;2023-09-19T05:43:08;18.20;99.90
21861;DHT22;11095;48.066;8.540;2023-09-19T05:45:33;19.40;99.90
21861;DHT22;11095;48.066;8.540;2023-09-19T05:48:08;20.40;99.90
21861;DHT22;11095;48.066;8.540;2023-09-19T05:50:34;21.10;99.90
21861;DHT22;11095;48.066;8.540;2023-09-19T05:52:59;21.40;99.90
21861;DHT22;11095;48.066;8.540;2023-09-19T05:55:25;21.60;99.90
21861;DHT22;11095;48.066;8.540;2023-09-19T05:57:51;21.60;99.90
21861;DHT22;11095;48.066;8.540;2023-09-19T06:00:22;21.30;99.90
21861;DHT22;11095;48.066;8.540;2023-09-19T06:02:55;21.20;99.90
21861;DHT22;11095;48.066;8.540;2023-09-19T06:05:23;21.30;99.90
21861;DHT22;11095;48.066;8.540;2023-09-19T06:07:48;21.70;99.90
21861;DHT22;11095;48.066;8.540;2023-09-19T06:10:15;21.60;99.90
21861;DHT22;11095;48.066;8.540;2023-09-19T06:12:43;21.20;99.90
21861;DHT22;11095;48.066;8.540;2023-09-19T06:15:13;20.80;99.90
21861;DHT22;11095;48.066;8.540;2023-09-19T06:17:47;20.50;99.90
21861;DHT22;11095;48.066;8.540;2023-09-19T06:20:14;20.40;99.90
21861;DHT22;11095;48.066;8.540;2023-09-19T06:22:44;20.20;99.90
21861;DHT22;11095;48.066;8.540;2023-09-19T06:25:10;20.20;99.90
21861;DHT22;11095;48.066;8.540;2023-09-19T06:27:38;20.30;99.90
21861;DHT22;11095;48.066;8.540;2023-09-19T06:30:05;20.10;99.90
21861;DHT22;11095;48.066;8.540;2023-09-19T06:32:31;19.90;99.90
21861;DHT22;11095;48.066;8.540;2023-09-19T06:34:57;19.80;99.90
21861;DHT22;11095;48.066;8.540;2023-09-19T06:37:27;19.40;99.90
21861;DHT22;11095;48.066;8.540;2023-09-19T06:39:53;19.00;99.90
21861;DHT22;11095;48.066;8.540;2023-09-19T06:42:19;18.50;99.90
21861;DHT22;11095;48.066;8.540;2023-09-19T06:44:44;18.10;99.90
21861;DHT22;11095;48.066;8.540;2023-09-19T06:47:10;17.80;99.90
21861;DHT22;11095;48.066;8.540;2023-09-19T06:49:36;17.60;99.90
21861;DHT22;11095;48.066;8.540;2023-09-19T06:52:01;17.30;99.90
21861;DHT22;11095;48.066;8.540;2023-09-19T06:54:28;17.30;99.90
21861;DHT22;11095;48.066;8.540;2023-09-19T06:56:57;17.30;99.90
21861;DHT22;11095;48.066;8.540;2023-09-19T06:59:24;17.60;99.90
21861;DHT22;11095;48.066;8.540;2023-09-19T07:01:49;18.00;99.90
21861;DHT22;11095;48.066;8.540;2023-09-19T07:04:16;18.00;99.90
21861;DHT22;11095;48.066;8.540;2023-09-19T07:06:44;18.00;99.90
21861;DHT22;11095;48.066;8.540;2023-09-19T07:09:11;17.90;99.90
21861;DHT22;11095;48.066;8.540;2023-09-19T07:11:37;18.70;99.90
21861;DHT22;11095;48.066;8.540;2023-09-19T07:14:03;20.40;99.90
21861;DHT22;11095;48.066;8.540;2023-09-19T07:16:31;22.60;99.90
21861;DHT22;11095;48.066;8.540;2023-09-19T07:18:56;25.00;99.90
21861;DHT22;11095;48.066;8.540;2023-09-19T07:21:23;27.20;99.90
21861;DHT22;11095;48.066;8.540;2023-09-19T07:23:49;28.70;99.90
21861;DHT22;11095;48.066;8.540;2023-09-19T07:26:15;29.70;99.90
21861;DHT22;11095;48.066;8.540;2023-09-19T07:28:41;29.50;99.90
21861;DHT22;11095;48.066;8.540;2023-09-19T07:31:07;29.20;99.90
21861;DHT22;11095;48.066;8.540;2023-09-19T07:33:35;29.00;99.90
21861;DHT22;11095;48.066;8.540;2023-09-19T07:36:01;28.00;99.90
21861;DHT22;11095;48.066;8.540;2023-09-19T07:38:27;26.80;99.90
21861;DHT22;11095;48.066;8.540;2023-09-19T07:40:52;26.30;99.90
21861;DHT22;11095;48.066;8.540;2023-09-19T07:43:18;25.80;99.90
21861;DHT22;11095;48.066;8.540;2023-09-19T07:45:43;25.10;99.90
21861;DHT22;11095;48.066;8.540;2023-09-19T07:48:09;24.50;99.90
21861;DHT22;11095;48.066;8.540;2023-09-19T07:50:40;23.90;99.90
21861;DHT22;11095;48.066;8.540;2023-09-19T07:53:08;23.40;99.90
21861;DHT22;11095;48.066;8.540;2023-09-19T07:55:34;23.50;99.90
21861;DHT22;11095;48.066;8.540;2023-09-19T07:57:59;24.70;99.90
21861;DHT22;11095;48.066;8.540;2023-09-19T08:00:25;26.00;99.90
21861;DHT22;11095;48.066;8.540;2023-09-19T08:02:51;27.00;99.90
21861;DHT22;11095;48.066;8.540;2023-09-19T08:05:19;27.90;99.90
21861;DHT22;11095;48.066;8.540;2023-09-19T08:07:46;28.60;99.90
21861;DHT22;11095;48.066;8.540;2023-09-19T08:10:15;29.10;99.90
21861;DHT22;11095;48.066;8.540;2023-09-19T08:12:44;29.30;99.90
21861;DHT22;11095;48.066;8.540;2023-09-19T08:15:13;29.90;99.90
21861;DHT22;11095;48.066;8.540;2023-09-19T08:17:39;30.10;99.90
21861;DHT22;11095;48.066;8.540;2023-09-19T08:20:05;30.80;99.90
21861;DHT22;11095;48.066;8.540;2023-09-19T08:22:32;31.00;99.90
21861;DHT22;11095;48.066;8.540;2023-09-19T08:24:58;31.20;99.50
21861;DHT22;11095;48.066;8.540;2023-09-19T08:27:24;30.60;99.30
21861;DHT22;11095;48.066;8.540;2023-09-19T08:29:52;30.80;98.90
21861;DHT22;11095;48.066;8.540;2023-09-19T08:32:18;30.60;98.50
21861;DHT22;11095;48.066;8.540;2023-09-19T08:34:49;30.50;97.70
21861;DHT22;11095;48.066;8.540;2023-09-19T08:37:14;30.10;98.00
21861;DHT22;11095;48.066;8.540;2023-09-19T08:39:41;29.30;98.20
21861;DHT22;11095;48.066;8.540;2023-09-19T08:42:06;28.80;98.60
21861;DHT22;11095;48.066;8.540;2023-09-19T08:44:36;28.50;99.30
21861;DHT22;11095;48.066;8.540;2023-09-19T08:47:16;28.40;99.80
21861;DHT22;11095;48.066;8.540;2023-09-19T08:50:05;28.90;99.90
21861;DHT22;11095;48.066;8.540;2023-09-19T08:52:43;29.60;99.60
21861;DHT22;11095;48.066;8.540;2023-09-19T08:55:13;29.90;98.70
21861;DHT22;11095;48.066;8.540;2023-09-19T08:57:46;29.60;97.70
21861;DHT22;11095;48.066;8.540;2023-09-19T09:00:15;29.20;98.10
21861;DHT22;11095;48.066;8.540;2023-09-19T09:02:43;29.20;97.90
21861;DHT22;11095;48.066;8.540;2023-09-19T09:05:09;29.20;98.60
21861;DHT22;11095;48.066;8.540;2023-09-19T09:07:40;29.20;97.50
21861;DHT22;11095;48.066;8.540;2023-09-19T09:10:07;29.00;97.50
21861;DHT22;11095;48.066;8.540;2023-09-19T09:12:34;29.00;97.50
21861;DHT22;11095;48.066;8.540;2023-09-19T09:15:02;29.20;97.20
21861;DHT22;11095;48.066;8.540;2023-09-19T09:17:29;28.70;98.30
21861;DHT22;11095;48.066;8.540;2023-09-19T09:19:55;28.10;97.60
21861;DHT22;11095;48.066;8.540;2023-09-19T09:22:21;27.50;97.70
21861;DHT22;11095;48.066;8.540;2023-09-19T09:24:57;27.10;98.40
21861;DHT22;11095;48.066;8.540;2023-09-19T09:27:30;26.40;99.10
21861;DHT22;11095;48.066;8.540;2023-09-19T09:29:58;25.70;99.90
21861;DHT22;11095;48.066;8.540;2023-09-19T09:34:58;24.20;99.90
21861;DHT22;11095;48.066;8.540;2023-09-19T09:37:24;23.70;99.90
21861;DHT22;11095;48.066;8.540;2023-09-19T09:39:59;23.10;99.90
21861;DHT22;11095;48.066;8.540;2023-09-19T09:42:44;22.80;99.90
21861;DHT22;11095;48.066;8.540;2023-09-19T09:47:45;22.50;99.90
21861;DHT22;11095;48.066;8.540;2023-09-19T09:50:29;22.30;99.90
21861;DHT22;11095;48.066;8.540;2023-09-19T09:53:05;22.40;99.90
21861;DHT22;11095;48.066;8.540;2023-09-19T09:55:57;22.50;99.90
21861;DHT22;11095;48.066;8.540;2023-09-19T09:58:24;22.40;99.90
21861;DHT22;11095;48.066;8.540;2023-09-19T10:00:54;22.20;99.90
21861;DHT22;11095;48.066;8.540;2023-09-19T10:03:33;22.20;99.90
21861;DHT22;11095;48.066;8.540;2023-09-19T10:06:00;22.40;99.90
21861;DHT22;11095;48.066;8.540;2023-09-19T10:08:34;22.70;99.90
21861;DHT22;11095;48.066;8.540;2023-09-19T10:11:01;23.00;99.90
21861;DHT22;11095;48.066;8.540;2023-09-19T10:13:35;23.10;99.90
21861;DHT22;11095;48.066;8.540;2023-09-19T10:16:06;22.90;99.90
21861;DHT22;11095;48.066;8.540;2023-09-19T10:18:36;23.00;99.90
21861;DHT22;11095;48.066;8.540;2023-09-19T10:21:04;23.10;99.90
21861;DHT22;11095;48.066;8.540;2023-09-19T10:23:32;23.40;99.90
21861;DHT22;11095;48.066;8.540;2023-09-19T10:26:01;23.50;99.90
21861;DHT22;11095;48.066;8.540;2023-09-19T10:28:28;23.60;99.90
21861;DHT22;11095;48.066;8.540;2023-09-19T10:30:55;23.40;99.90
21861;DHT22;11095;48.066;8.540;2023-09-19T10:33:24;23.30;99.90
21861;DHT22;11095;48.066;8.540;2023-09-19T10:35:57;23.30;99.90
21861;DHT22;11095;48.066;8.540;2023-09-19T10:38:26;23.30;99.90
21861;DHT22;11095;48.066;8.540;2023-09-19T10:40:54;23.20;99.90
21861;DHT22;11095;48.066;8.540;2023-09-19T10:43:21;23.50;99.90
21861;DHT22;11095;48.066;8.540;2023-09-19T10:45:50;23.70;99.90
21861;DHT22;11095;48.066;8.540;2023-09-19T10:48:18;24.20;99.90
21861;DHT22;11095;48.066;8.540;2023-09-19T10:53:26;24.30;99.90
21861;DHT22;11095;48.066;8.540;2023-09-19T10:55:59;24.30;99.90
21861;DHT22;11095;48.066;8.540;2023-09-19T10:58:32;24.50;99.90
21861;DHT22;11095;48.066;8.540;2023-09-19T11:01:00;24.40;99.90
21861;DHT22;11095;48.066;8.540;2023-09-19T11:03:37;24.30;99.90
21861;DHT22;11095;48.066;8.540;2023-09-19T11:06:21;24.00;99.90
21861;DHT22;11095;48.066;8.540;2023-09-19T11:30:48;22.20;99.90
21861;DHT22;11095;48.066;8.540;2023-09-19T11:33:33;22.10;99.90
21861;DHT22;11095;48.066;8.540;2023-09-19T11:44:31;22.30;99.90
21861;DHT22;11095;48.066;8.540;2023-09-19T11:47:09;22.30;99.90
21861;DHT22;11095;48.066;8.540;2023-09-19T11:49:40;22.30;99.90
21861;DHT22;11095;48.066;8.540;2023-09-19T11:52:06;22.40;99.90
21861;DHT22;11095;48.066;8.540;2023-09-19T11:54:34;22.40;99.90
21861;DHT22;11095;48.066;8.540;2023-09-19T11:57:02;22.40;99.90
21861;DHT22;11095;48.066;8.540;2023-09-19T11:59:29;22.40;99.90
21861;DHT22;11095;48.066;8.540;2023-09-19T12:02:03;22.40;99.90
21861;DHT22;11095;48.066;8.540;2023-09-19T12:04:40;22.50;99.90
21861;DHT22;11095;48.066;8.540;2023-09-19T12:07:11;22.40;99.90
21861;DHT22;11095;48.066;8.540;2023-09-19T12:09:45;22.30;99.90
21861;DHT22;11095;48.066;8.540;2023-09-19T12:12:26;22.30;99.90
21861;DHT22;11095;48.066;8.540;2023-09-19T12:15:01;22.40;99.90
21861;DHT22;11095;48.066;8.540;2023-09-19T12:17:39;22.40;99.90
21861;DHT22;11095;48.066;8.540;2023-09-19T12:20:06;22.40;99.90
21861;DHT22;11095;48.066;8.540;2023-09-19T12:22:45;22.50;99.90
21861;DHT22;11095;48.066;8.540;2023-09-19T12:25:15;22.60;99.90
21861;DHT22;11095;48.066;8.540;2023-09-19T12:27:46;22.40;99.90
21861;DHT22;11095;48.066;8.540;2023-09-19T12:30:14;22.40;99.90
21861;DHT22;11095;48.066;8.540;2023-09-19T12:32:40;22.20;99.90
21861;DHT22;11095;48.066;8.540;2023-09-19T12:35:07;22.20;99.90
21861;DHT22;11095;48.066;8.540;2023-09-19T12:37:44;22.20;99.90
21861;DHT22;11095;48.066;8.540;2023-09-19T12:40:18;22.10;99.90
21861;DHT22;11095;48.066;8.540;2023-09-19T12:42:50;22.10;99.90
21861;DHT22;11095;48.066;8.540;2023-09-19T12:45:19;22.20;99.90
21861;DHT22;11095;48.066;8.540;2023-09-19T12:51:07;22.10;99.90
21861;DHT22;11095;48.066;8.540;2023-09-19T12:53:34;22.10;99.90
21861;DHT22;11095;48.066;8.540;2023-09-19T12:56:05;22.10;99.90
21861;DHT22;11095;48.066;8.540;2023-09-19T12:58:34;22.20;99.90
21861;DHT22;11095;48.066;8.540;2023-09-19T13:01:00;22.20;99.90
21861;DHT22;11095;48.066;8.540;2023-09-19T13:03:28;22.20;99.90
21861;DHT22;11095;48.066;8.540;2023-09-19T13:05:58;22.10;99.90
21861;DHT22;11095;48.066;8.540;2023-09-19T13:08:36;22.00;99.90
21861;DHT22;11095;48.066;8.540;2023-09-19T13:11:12;22.00;99.90
21861;DHT22;11095;48.066;8.540;2023-09-19T13:13:43;22.00;99.90
21861;DHT22;11095;48.066;8.540;2023-09-19T13:16:10;22.00;99.90
21861;DHT22;11095;48.066;8.540;2023-09-19T13:18:50;22.10;99.90
21861;DHT22;11095;48.066;8.540;2023-09-19T13:21:28;22.20;99.90
21861;DHT22;11095;48.066;8.540;2023-09-19T13:23:55;22.30;99.90
21861;DHT22;11095;48.066;8.540;2023-09-19T13:26:27;22.30;99.90
21861;DHT22;11095;48.066;8.540;2023-09-19T13:28:54;22.40;99.90
21861;DHT22;11095;48.066;8.540;2023-09-19T13:31:20;22.40;99.90
21861;DHT22;11095;48.066;8.540;2023-09-19T13:33:47;22.50;99.90
21861;DHT22;11095;48.066;8.540;2023-09-19T13:36:13;22.50;99.90
21861;DHT22;11095;48.066;8.540;2023-09-19T13:38:42;22.50;99.90
21861;DHT22;11095;48.066;8.540;2023-09-19T13:41:11;22.40;99.90
21861;DHT22;11095;48.066;8.540;2023-09-19T13:43:37;22.50;99.90
21861;DHT22;11095;48.066;8.540;2023-09-19T13:46:04;22.40;99.90
21861;DHT22;11095;48.066;8.540;2023-09-19T13:48:30;22.30;99.90
21861;DHT22;11095;48.066;8.540;2023-09-19T13:50:56;22.30;99.90
21861;DHT22;11095;48.066;8.540;2023-09-19T13:53:22;22.40;99.90
21861;DHT22;11095;48.066;8.540;2023-09-19T13:55:48;22.50;99.90
21861;DHT22;11095;48.066;8.540;2023-09-19T13:58:16;22.60;99.90
21861;DHT22;11095;48.066;8.540;2023-09-19T14:00:42;22.70;99.90
21861;DHT22;11095;48.066;8.540;2023-09-19T14:03:08;22.80;99.90
21861;DHT22;11095;48.066;8.540;2023-09-19T14:05:33;22.80;99.90
21861;DHT22;11095;48.066;8.540;2023-09-19T14:07:59;22.80;99.90
21861;DHT22;11095;48.066;8.540;2023-09-19T14:10:25;22.80;99.90
21861;DHT22;11095;48.066;8.540;2023-09-19T14:12:55;22.80;99.90
21861;DHT22;11095;48.066;8.540;2023-09-19T14:15:22;22.90;99.90
21861;DHT22;11095;48.066;8.540;2023-09-19T14:17:58;22.80;99.90
21861;DHT22;11095;48.066;8.540;2023-09-19T14:20:24;22.90;99.90
21861;DHT22;11095;48.066;8.540;2023-09-19T14:22:50;22.90;99.90
21861;DHT22;11095;48.066;8.540;2023-09-19T14:25:16;22.80;99.90
21861;DHT22;11095;48.066;8.540;2023-09-19T14:27:42;22.60;99.90
21861;DHT22;11095;48.066;8.540;2023-09-19T14:30:08;22.60;99.90
21861;DHT22;11095;48.066;8.540;2023-09-19T14:32:34;22.60;99.90
21861;DHT22;11095;48.066;8.540;2023-09-19T14:35:02;22.30;99.90
21861;DHT22;11095;48.066;8.540;2023-09-19T14:37:27;22.30;99.90
21861;DHT22;11095;48.066;8.540;2023-09-19T14:39:53;22.30;99.90
21861;DHT22;11095;48.066;8.540;2023-09-19T14:42:19;22.50;99.90
21861;DHT22;11095;48.066;8.540;2023-09-19T14:44:45;22.60;99.90
21861;DHT22;11095;48.066;8.540;2023-09-19T14:47:12;22.60;99.90
21861;DHT22;11095;48.066;8.540;2023-09-19T14:49:38;22.60;99.90
21861;DHT22;11095;48.066;8.540;2023-09-19T14:52:09;22.60;99.90
21861;DHT22;11095;48.066;8.540;2023-09-19T14:54:35;22.70;99.90
21861;DHT22;11095;48.066;8.540;2023-09-19T14:57:03;22.70;99.90
21861;DHT22;11095;48.066;8.540;2023-09-19T14:59:33;22.70;99.90
21861;DHT22;11095;48.066;8.540;2023-09-19T15:02:02;22.70;99.90
21861;DHT22;11095;48.066;8.540;2023-09-19T15:04:29;22.70;99.90
21861;DHT22;11095;48.066;8.540;2023-09-19T15:06:54;22.70;99.90
21861;DHT22;11095;48.066;8.540;2023-09-19T15:09:21;22.70;99.90
21861;DHT22;11095;48.066;8.540;2023-09-19T15:11:49;22.70;99.90
21861;DHT22;11095;48.066;8.540;2023-09-19T15:14:15;22.60;99.90
21861;DHT22;11095;48.066;8.540;2023-09-19T15:16:40;22.50;99.90
21861;DHT22;11095;48.066;8.540;2023-09-19T15:19:09;22.50;99.90
21861;DHT22;11095;48.066;8.540;2023-09-19T15:21:35;22.40;99.90
21861;DHT22;11095;48.066;8.540;2023-09-19T15:24:02;22.40;99.90
21861;DHT22;11095;48.066;8.540;2023-09-19T15:26:28;22.40;99.90
21861;DHT22;11095;48.066;8.540;2023-09-19T15:28:55;22.30;99.90
21861;DHT22;11095;48.066;8.540;2023-09-19T15:31:21;22.20;99.90
21861;DHT22;11095;48.066;8.540;2023-09-19T15:33:46;22.20;99.90
21861;DHT22;11095;48.066;8.540;2023-09-19T15:36:15;22.10;99.90
21861;DHT22;11095;48.066;8.540;2023-09-19T15:38:56;22.00;99.90
21861;DHT22;11095;48.066;8.540;2023-09-19T15:41:32;22.00;99.90
21861;DHT22;11095;48.066;8.540;2023-09-19T15:44:00;21.90;99.90
21861;DHT22;11095;48.066;8.540;2023-09-19T15:46:29;21.80;99.90
21861;DHT22;11095;48.066;8.540;2023-09-19T15:48:55;21.90;99.90
21861;DHT22;11095;48.066;8.540;2023-09-19T15:51:21;21.90;99.90
21861;DHT22;11095;48.066;8.540;2023-09-19T15:53:50;21.80;99.90
21861;DHT22;11095;48.066;8.540;2023-09-19T15:56:17;21.70;99.90
21861;DHT22;11095;48.066;8.540;2023-09-19T15:58:47;21.50;99.90
21861;DHT22;11095;48.066;8.540;2023-09-19T16:01:13;21.40;99.90
21861;DHT22;11095;48.066;8.540;2023-09-19T16:03:42;21.30;99.90
21861;DHT22;11095;48.066;8.540;2023-09-19T16:06:16;21.30;99.90
21861;DHT22;11095;48.066;8.540;2023-09-19T16:08:46;21.20;99.90
21861;DHT22;11095;48.066;8.540;2023-09-19T16:11:12;21.10;99.90
21861;DHT22;11095;48.066;8.540;2023-09-19T16:13:40;20.90;99.90
21861;DHT22;11095;48.066;8.540;2023-09-19T16:16:09;20.80;99.90
21861;DHT22;11095;48.066;8.540;2023-09-19T16:18:56;20.60;99.90
21861;DHT22;11095;48.066;8.540;2023-09-19T16:21:24;20.60;99.90
21861;DHT22;11095;48.066;8.540;2023-09-19T16:23:50;20.50;99.90
21861;DHT22;11095;48.066;8.540;2023-09-19T16:26:17;20.50;99.90
21861;DHT22;11095;48.066;8.540;2023-09-19T16:28:50;20.40;99.90
21861;DHT22;11095;48.066;8.540;2023-09-19T16:31:16;20.30;99.90
21861;DHT22;11095;48.066;8.540;2023-09-19T16:33:43;20.30;99.90
21861;DHT22;11095;48.066;8.540;2023-09-19T16:36:11;20.20;99.90
21861;DHT22;11095;48.066;8.540;2023-09-19T16:38:37;20.10;99.90